sensor_id;sensor_type;location;lat;lon;timestamp;temperature;humidity
3332;DHT22;1678;50.94845400;5.30809100;2022-12-16T00:01:56;-4.40;99.90
3332;DHT22;1678;50.94845400;5.30809100;2022-12-16T00:04:24;-4.40;99.90
3332;DHT22;1678;50.94845400;5.30809100;2022-12-16T00:06:52;-4.30;99.90
3332;DHT22;1678;50.94845400;5.30809100;2022-12-16T00:09:22;-4.20;99.90
3332;DHT22;1678;50.94845400;5.30809100;2022-12-16T00:11:50;-4.00;99.90
3332;DHT22;1678;50.94845400;5.30809100;2022-12-16T00:14:20;-3.90;99.90
3332;DHT22;1678;50.94845400;5.30809100;2022-12-16T00:16:48;-3.80;99.90
3332;DHT22;1678;50.94845400;5.30809100;2022-12-16T00:19:19;-3.80;99.90
3332;DHT22;1678;50.94845400;5.30809100;2022-12-16T00:21:47;-3.70;99.90
3332;DHT22;1678;50.94845400;5.30809100;2022-12-16T00:24:17;-3.60;99.90
3332;DHT22;1678;50.94845400;5.30809100;2022-12-16T00:26:47;-3.60;99.90
3332;DHT22;1678;50.94845400;5.30809100;2022-12-16T00:29:16;-3.50;99.90
3332;DHT22;1678;50.94845400;5.30809100;2022-12-16T00:31:44;-3.50;99.90
3332;DHT22;1678;50.94845400;5.30809100;2022-12-16T00:34:14;-3.40;99.90
3332;DHT22;1678;50.94845400;5.30809100;2022-12-16T00:36:43;-3.40;99.90
3332;DHT22;1678;50.94845400;5.30809100;2022-12-16T00:39:11;-3.40;99.90
3332;DHT22;1678;50.94845400;5.30809100;2022-12-16T00:41:39;-3.30;99.90
3332;DHT22;1678;50.94845400;5.30809100;2022-12-16T00:44:08;-3.20;99.90
3332;DHT22;1678;50.94845400;5.30809100;2022-12-16T00:46:37;-3.20;99.90
3332;DHT22;1678;50.94845400;5.30809100;2022-12-16T00:49:05;-3.30;99.90
3332;DHT22;1678;50.94845400;5.30809100;2022-12-16T00:51:34;-3.20;99.90
3332;DHT22;1678;50.94845400;5.30809100;2022-12-16T00:54:02;-3.10;99.90
3332;DHT22;1678;50.94845400;5.30809100;2022-12-16T00:56:30;-3.00;99.90
3332;DHT22;1678;50.94845400;5.30809100;2022-12-16T00:58:59;-3.00;99.90
3332;DHT22;1678;50.94845400;5.30809100;2022-12-16T01:01:28;-2.80;99.90
3332;DHT22;1678;50.94845400;5.30809100;2022-12-16T01:03:57;-2.90;99.90
3332;DHT22;1678;50.94845400;5.30809100;2022-12-16T01:06:25;-2.80;99.90
3332;DHT22;1678;50.94845400;5.30809100;2022-12-16T01:08:53;-3.00;99.90
3332;DHT22;1678;50.94845400;5.30809100;2022-12-16T01:11:22;-2.80;99.90
3332;DHT22;1678;50.94845400;5.30809100;2022-12-16T01:13:50;-2.90;99.90
3332;DHT22;1678;50.94845400;5.30809100;2022-12-16T01:16:21;-2.80;99.90
3332;DHT22;1678;50.94845400;5.30809100;2022-12-16T01:18:51;-2.70;99.90
3332;DHT22;1678;50.94845400;5.30809100;2022-12-16T01:21:21;-2.70;99.90
3332;DHT22;1678;50.94845400;5.30809100;2022-12-16T01:23:49;-2.60;99.90
3332;DHT22;1678;50.94845400;5.30809100;2022-12-16T01:26:20;-2.60;99.90
3332;DHT22;1678;50.94845400;5.30809100;2022-12-16T01:28:49;-2.60;99.90
3332;DHT22;1678;50.94845400;5.30809100;2022-12-16T01:31:18;-2.60;99.90
3332;DHT22;1678;50.94845400;5.30809100;2022-12-16T01:33:47;-2.50;99.90
3332;DHT22;1678;50.94845400;5.30809100;2022-12-16T01:36:17;-2.40;99.90
3332;DHT22;1678;50.94845400;5.30809100;2022-12-16T01:38:45;-2.30;99.90
3332;DHT22;1678;50.94845400;5.30809100;2022-12-16T01:41:15;-2.20;99.90
3332;DHT22;1678;50.94845400;5.30809100;2022-12-16T01:43:44;-2.30;99.90
3332;DHT22;1678;50.94845400;5.30809100;2022-12-16T01:46:17;-2.30;99.90
3332;DHT22;1678;50.94845400;5.30809100;2022-12-16T01:48:51;-2.30;99.90
3332;DHT22;1678;50.94845400;5.30809100;2022-12-16T01:51:25;-2.40;99.90
3332;DHT22;1678;50.94845400;5.30809100;2022-12-16T01:53:56;-2.30;99.90
3332;DHT22;1678;50.94845400;5.30809100;2022-12-16T01:56:27;-2.40;99.90
3332;DHT22;1678;50.94845400;5.30809100;2022-12-16T01:58:57;-2.40;99.90
3332;DHT22;1678;50.94845400;5.30809100;2022-12-16T02:01:26;-2.40;99.90
3332;DHT22;1678;50.94845400;5.30809100;2022-12-16T02:03:56;-2.40;99.90
3332;DHT22;1678;50.94845400;5.30809100;2022-12-16T02:06:29;-2.40;99.90
3332;DHT22;1678;50.94845400;5.30809100;2022-12-16T02:08:59;-2.40;99.90
3332;DHT22;1678;50.94845400;5.30809100;2022-12-16T02:11:44;-2.60;99.90
3332;DHT22;1678;50.94845400;5.30809100;2022-12-16T02:14:27;-2.60;99.90
3332;DHT22;1678;50.94845400;5.30809100;2022-12-16T02:17:00;-2.60;99.90
3332;DHT22;1678;50.94845400;5.30809100;2022-12-16T02:19:58;-2.60;99.90
3332;DHT22;1678;50.94845400;5.30809100;2022-12-16T02:22:44;-2.60;99.90
3332;DHT22;1678;50.94845400;5.30809100;2022-12-16T02:25:44;-2.50;99.90
3332;DHT22;1678;50.94845400;5.30809100;2022-12-16T02:28:25;-2.40;99.90
3332;DHT22;1678;50.94845400;5.30809100;2022-12-16T02:31:05;-2.40;99.90
3332;DHT22;1678;50.94845400;5.30809100;2022-12-16T02:33:46;-2.30;99.90
3332;DHT22;1678;50.94845400;5.30809100;2022-12-16T02:36:24;-2.40;99.90
3332;DHT22;1678;50.94845400;5.30809100;2022-12-16T02:38:58;-2.30;99.90
3332;DHT22;1678;50.94845400;5.30809100;2022-12-16T02:41:34;-2.30;99.90
3332;DHT22;1678;50.94845400;5.30809100;2022-12-16T02:44:06;-2.30;99.90
3332;DHT22;1678;50.94845400;5.30809100;2022-12-16T02:46:40;-2.30;99.90
3332;DHT22;1678;50.94845400;5.30809100;2022-12-16T02:49:40;-2.20;99.90
3332;DHT22;1678;50.94845400;5.30809100;2022-12-16T02:52:11;-2.30;99.90
3332;DHT22;1678;50.94845400;5.30809100;2022-12-16T02:54:40;-2.40;99.90
3332;DHT22;1678;50.94845400;5.30809100;2022-12-16T02:57:20;-2.40;99.90
3332;DHT22;1678;50.94845400;5.30809100;2022-12-16T02:59:58;-2.40;99.90
3332;DHT22;1678;50.94845400;5.30809100;2022-12-16T03:02:34;-2.40;99.90
3332;DHT22;1678;50.94845400;5.30809100;2022-12-16T03:05:07;-2.50;99.90
3332;DHT22;1678;50.94845400;5.30809100;2022-12-16T03:07:39;-2.50;99.90
3332;DHT22;1678;50.94845400;5.30809100;2022-12-16T03:10:14;-2.50;99.90
3332;DHT22;1678;50.94845400;5.30809100;2022-12-16T03:12:44;-2.60;99.90
3332;DHT22;1678;50.94845400;5.30809100;2022-12-16T03:15:15;-2.60;99.90
3332;DHT22;1678;50.94845400;5.30809100;2022-12-16T03:17:48;-2.60;99.90
3332;DHT22;1678;50.94845400;5.30809100;2022-12-16T03:20:21;-2.50;99.90
3332;DHT22;1678;50.94845400;5.30809100;2022-12-16T03:22:51;-2.50;99.90
3332;DHT22;1678;50.94845400;5.30809100;2022-12-16T03:25:21;-2.60;99.90
3332;DHT22;1678;50.94845400;5.30809100;2022-12-16T03:27:56;-2.50;99.90
3332;DHT22;1678;50.94845400;5.30809100;2022-12-16T03:30:28;-2.60;99.90
3332;DHT22;1678;50.94845400;5.30809100;2022-12-16T03:33:04;-2.50;99.90
3332;DHT22;1678;50.94845400;5.30809100;2022-12-16T03:35:37;-2.50;99.90
3332;DHT22;1678;50.94845400;5.30809100;2022-12-16T03:38:08;-2.50;99.90
3332;DHT22;1678;50.94845400;5.30809100;2022-12-16T03:40:40;-2.30;99.90
3332;DHT22;1678;50.94845400;5.30809100;2022-12-16T03:43:09;-2.30;99.90
3332;DHT22;1678;50.94845400;5.30809100;2022-12-16T03:45:41;-2.30;99.90
3332;DHT22;1678;50.94845400;5.30809100;2022-12-16T03:48:13;-2.30;99.90
3332;DHT22;1678;50.94845400;5.30809100;2022-12-16T03:50:43;-2.30;99.90
3332;DHT22;1678;50.94845400;5.30809100;2022-12-16T03:53:11;-2.20;99.90
3332;DHT22;1678;50.94845400;5.30809100;2022-12-16T03:55:39;-2.10;99.90
3332;DHT22;1678;50.94845400;5.30809100;2022-12-16T03:58:07;-2.20;99.90
3332;DHT22;1678;50.94845400;5.30809100;2022-12-16T04:00:35;-2.20;99.90
3332;DHT22;1678;50.94845400;5.30809100;2022-12-16T04:03:03;-2.20;99.90
3332;DHT22;1678;50.94845400;5.30809100;2022-12-16T04:05:33;-2.10;99.90
3332;DHT22;1678;50.94845400;5.30809100;2022-12-16T04:08:02;-2.00;99.90
3332;DHT22;1678;50.94845400;5.30809100;2022-12-16T04:10:30;-2.00;99.90
3332;DHT22;1678;50.94845400;5.30809100;2022-12-16T04:13:16;-2.10;99.90
3332;DHT22;1678;50.94845400;5.30809100;2022-12-16T04:16:04;-2.00;99.90
3332;DHT22;1678;50.94845400;5.30809100;2022-12-16T04:18:58;-2.00;99.90
3332;DHT22;1678;50.94845400;5.30809100;2022-12-16T04:21:46;-1.90;99.90
3332;DHT22;1678;50.94845400;5.30809100;2022-12-16T04:24:32;-1.80;99.90
3332;DHT22;1678;50.94845400;5.30809100;2022-12-16T04:27:00;-1.80;99.90
3332;DHT22;1678;50.94845400;5.30809100;2022-12-16T04:29:42;-1.90;99.90
3332;DHT22;1678;50.94845400;5.30809100;2022-12-16T04:32:29;-1.90;99.90
3332;DHT22;1678;50.94845400;5.30809100;2022-12-16T04:35:18;-2.00;99.90
3332;DHT22;1678;50.94845400;5.30809100;2022-12-16T04:38:05;-1.80;99.90
3332;DHT22;1678;50.94845400;5.30809100;2022-12-16T04:40:51;-1.70;99.90
3332;DHT22;1678;50.94845400;5.30809100;2022-12-16T04:43:36;-1.70;99.90
3332;DHT22;1678;50.94845400;5.30809100;2022-12-16T04:46:23;-1.70;99.90
3332;DHT22;1678;50.94845400;5.30809100;2022-12-16T04:49:08;-1.60;99.90
3332;DHT22;1678;50.94845400;5.30809100;2022-12-16T04:51:54;-1.60;99.90
3332;DHT22;1678;50.94845400;5.30809100;2022-12-16T04:54:41;-1.50;99.90
3332;DHT22;1678;50.94845400;5.30809100;2022-12-16T04:57:26;-1.50;99.90
3332;DHT22;1678;50.94845400;5.30809100;2022-12-16T05:00:12;-1.50;99.90
3332;DHT22;1678;50.94845400;5.30809100;2022-12-16T05:02:58;-1.30;99.90
3332;DHT22;1678;50.94845400;5.30809100;2022-12-16T05:05:43;-1.40;99.90
3332;DHT22;1678;50.94845400;5.30809100;2022-12-16T05:08:29;-1.40;99.90
3332;DHT22;1678;50.94845400;5.30809100;2022-12-16T05:11:16;-1.40;99.90
3332;DHT22;1678;50.94845400;5.30809100;2022-12-16T05:14:01;-1.30;99.90
3332;DHT22;1678;50.94845400;5.30809100;2022-12-16T05:16:47;-1.30;99.90
3332;DHT22;1678;50.94845400;5.30809100;2022-12-16T05:19:32;-1.10;99.90
3332;DHT22;1678;50.94845400;5.30809100;2022-12-16T05:22:18;-1.20;99.90
3332;DHT22;1678;50.94845400;5.30809100;2022-12-16T05:25:04;-1.10;99.90
3332;DHT22;1678;50.94845400;5.30809100;2022-12-16T05:27:52;-1.10;99.90
3332;DHT22;1678;50.94845400;5.30809100;2022-12-16T05:30:38;-1.10;99.90
3332;DHT22;1678;50.94845400;5.30809100;2022-12-16T05:33:35;-1.20;99.90
3332;DHT22;1678;50.94845400;5.30809100;2022-12-16T05:36:21;-1.20;99.90
3332;DHT22;1678;50.94845400;5.30809100;2022-12-16T05:39:07;-1.20;99.90
3332;DHT22;1678;50.94845400;5.30809100;2022-12-16T05:41:52;-1.10;99.90
3332;DHT22;1678;50.94845400;5.30809100;2022-12-16T05:44:40;-1.00;99.90
3332;DHT22;1678;50.94845400;5.30809100;2022-12-16T05:47:26;-1.00;99.90
3332;DHT22;1678;50.94845400;5.30809100;2022-12-16T05:50:11;-1.10;99.90
3332;DHT22;1678;50.94845400;5.30809100;2022-12-16T05:52:57;-1.00;99.90
3332;DHT22;1678;50.94845400;5.30809100;2022-12-16T05:55:42;-1.00;99.90
3332;DHT22;1678;50.94845400;5.30809100;2022-12-16T05:58:28;-1.00;99.90
3332;DHT22;1678;50.94845400;5.30809100;2022-12-16T06:01:15;-0.90;99.90
3332;DHT22;1678;50.94845400;5.30809100;2022-12-16T06:04:01;-0.80;99.90
3332;DHT22;1678;50.94845400;5.30809100;2022-12-16T06:06:47;-0.90;99.90
3332;DHT22;1678;50.94845400;5.30809100;2022-12-16T06:09:33;-0.90;99.90
3332;DHT22;1678;50.94845400;5.30809100;2022-12-16T06:12:22;-0.90;99.90
3332;DHT22;1678;50.94845400;5.30809100;2022-12-16T06:15:09;-0.90;99.90
3332;DHT22;1678;50.94845400;5.30809100;2022-12-16T06:17:56;-0.90;99.90
3332;DHT22;1678;50.94845400;5.30809100;2022-12-16T06:20:42;-0.90;99.90
3332;DHT22;1678;50.94845400;5.30809100;2022-12-16T06:23:28;-0.90;99.90
3332;DHT22;1678;50.94845400;5.30809100;2022-12-16T06:26:13;-0.80;99.90
3332;DHT22;1678;50.94845400;5.30809100;2022-12-16T06:28:58;-0.90;99.90
3332;DHT22;1678;50.94845400;5.30809100;2022-12-16T06:31:43;-0.90;99.90
3332;DHT22;1678;50.94845400;5.30809100;2022-12-16T06:34:31;-0.80;99.90
3332;DHT22;1678;50.94845400;5.30809100;2022-12-16T06:37:16;-0.80;99.90
3332;DHT22;1678;50.94845400;5.30809100;2022-12-16T06:39:58;-0.70;99.90
3332;DHT22;1678;50.94845400;5.30809100;2022-12-16T06:42:46;-0.70;99.90
3332;DHT22;1678;50.94845400;5.30809100;2022-12-16T06:45:42;-0.70;99.90
3332;DHT22;1678;50.94845400;5.30809100;2022-12-16T06:48:27;-0.70;99.90
3332;DHT22;1678;50.94845400;5.30809100;2022-12-16T06:51:14;-0.70;99.90
3332;DHT22;1678;50.94845400;5.30809100;2022-12-16T06:53:59;-0.60;99.90
3332;DHT22;1678;50.94845400;5.30809100;2022-12-16T06:56:45;-0.50;99.90
3332;DHT22;1678;50.94845400;5.30809100;2022-12-16T06:59:31;-0.50;99.90
3332;DHT22;1678;50.94845400;5.30809100;2022-12-16T07:02:16;-0.50;99.90
3332;DHT22;1678;50.94845400;5.30809100;2022-12-16T07:05:01;-0.50;99.90
3332;DHT22;1678;50.94845400;5.30809100;2022-12-16T07:07:49;-0.50;99.90
3332;DHT22;1678;50.94845400;5.30809100;2022-12-16T07:10:35;-0.40;99.90
3332;DHT22;1678;50.94845400;5.30809100;2022-12-16T07:13:27;-0.50;99.90
3332;DHT22;1678;50.94845400;5.30809100;2022-12-16T07:16:12;-0.60;99.90
3332;DHT22;1678;50.94845400;5.30809100;2022-12-16T07:18:58;-0.50;99.90
3332;DHT22;1678;50.94845400;5.30809100;2022-12-16T07:21:43;-0.60;99.90
3332;DHT22;1678;50.94845400;5.30809100;2022-12-16T07:24:39;-0.60;99.90
3332;DHT22;1678;50.94845400;5.30809100;2022-12-16T07:27:24;-0.70;99.90
3332;DHT22;1678;50.94845400;5.30809100;2022-12-16T07:30:10;-0.60;99.90
3332;DHT22;1678;50.94845400;5.30809100;2022-12-16T07:32:56;-0.60;99.90
3332;DHT22;1678;50.94845400;5.30809100;2022-12-16T07:35:47;-0.60;99.90
3332;DHT22;1678;50.94845400;5.30809100;2022-12-16T07:38:29;-0.70;99.90
3332;DHT22;1678;50.94845400;5.30809100;2022-12-16T07:41:16;-0.60;99.90
3332;DHT22;1678;50.94845400;5.30809100;2022-12-16T07:44:01;-0.60;99.90
3332;DHT22;1678;50.94845400;5.30809100;2022-12-16T07:46:47;-0.70;99.90
3332;DHT22;1678;50.94845400;5.30809100;2022-12-16T07:49:32;-0.70;99.90
3332;DHT22;1678;50.94845400;5.30809100;2022-12-16T07:52:21;-0.70;99.90
3332;DHT22;1678;50.94845400;5.30809100;2022-12-16T07:55:07;-0.60;99.90
3332;DHT22;1678;50.94845400;5.30809100;2022-12-16T07:57:54;-0.60;99.90
3332;DHT22;1678;50.94845400;5.30809100;2022-12-16T08:00:39;-0.60;99.90
3332;DHT22;1678;50.94845400;5.30809100;2022-12-16T08:03:29;-0.60;99.90
3332;DHT22;1678;50.94845400;5.30809100;2022-12-16T08:06:15;-0.60;99.90
3332;DHT22;1678;50.94845400;5.30809100;2022-12-16T08:09:06;-0.60;99.90
3332;DHT22;1678;50.94845400;5.30809100;2022-12-16T08:11:51;-0.60;99.90
3332;DHT22;1678;50.94845400;5.30809100;2022-12-16T08:14:38;-0.50;99.90
3332;DHT22;1678;50.94845400;5.30809100;2022-12-16T08:17:24;-0.40;99.90
3332;DHT22;1678;50.94845400;5.30809100;2022-12-16T08:20:09;-0.40;99.90
3332;DHT22;1678;50.94845400;5.30809100;2022-12-16T08:22:55;-0.40;99.90
3332;DHT22;1678;50.94845400;5.30809100;2022-12-16T08:25:41;-0.40;99.90
3332;DHT22;1678;50.94845400;5.30809100;2022-12-16T08:28:26;-0.40;99.90
3332;DHT22;1678;50.94845400;5.30809100;2022-12-16T08:31:13;-0.40;99.90
3332;DHT22;1678;50.94845400;5.30809100;2022-12-16T08:33:59;-0.40;99.90
3332;DHT22;1678;50.94845400;5.30809100;2022-12-16T08:36:44;-0.40;99.90
3332;DHT22;1678;50.94845400;5.30809100;2022-12-16T08:39:30;-0.40;99.90
3332;DHT22;1678;50.94845400;5.30809100;2022-12-16T08:42:35;-0.30;99.90
3332;DHT22;1678;50.94845400;5.30809100;2022-12-16T08:45:22;-0.30;99.90
3332;DHT22;1678;50.94845400;5.30809100;2022-12-16T08:48:09;-0.30;99.90
3332;DHT22;1678;50.94845400;5.30809100;2022-12-16T08:50:56;-0.20;99.90
3332;DHT22;1678;50.94845400;5.30809100;2022-12-16T08:53:46;-0.10;99.90
3332;DHT22;1678;50.94845400;5.30809100;2022-12-16T08:56:32;-0.10;99.90
3332;DHT22;1678;50.94845400;5.30809100;2022-12-16T08:59:17;-0.10;99.90
3332;DHT22;1678;50.94845400;5.30809100;2022-12-16T09:02:03;0.00;99.90
3332;DHT22;1678;50.94845400;5.30809100;2022-12-16T09:04:50;0.00;99.90
3332;DHT22;1678;50.94845400;5.30809100;2022-12-16T09:07:36;0.10;99.90
3332;DHT22;1678;50.94845400;5.30809100;2022-12-16T09:10:21;0.10;99.90
3332;DHT22;1678;50.94845400;5.30809100;2022-12-16T09:13:11;0.10;99.90
3332;DHT22;1678;50.94845400;5.30809100;2022-12-16T09:15:57;0.10;99.90
3332;DHT22;1678;50.94845400;5.30809100;2022-12-16T09:18:45;0.20;99.90
3332;DHT22;1678;50.94845400;5.30809100;2022-12-16T09:21:33;0.30;99.90
3332;DHT22;1678;50.94845400;5.30809100;2022-12-16T09:24:20;0.20;99.90
3332;DHT22;1678;50.94845400;5.30809100;2022-12-16T09:27:06;0.20;99.90
3332;DHT22;1678;50.94845400;5.30809100;2022-12-16T09:29:51;0.30;99.90
3332;DHT22;1678;50.94845400;5.30809100;2022-12-16T09:32:40;0.30;99.90
3332;DHT22;1678;50.94845400;5.30809100;2022-12-16T09:35:26;0.30;99.90
3332;DHT22;1678;50.94845400;5.30809100;2022-12-16T09:38:13;0.40;99.90
3332;DHT22;1678;50.94845400;5.30809100;2022-12-16T09:41:08;0.30;99.90
3332;DHT22;1678;50.94845400;5.30809100;2022-12-16T09:44:18;0.30;99.90
3332;DHT22;1678;50.94845400;5.30809100;2022-12-16T09:47:14;0.40;99.90
3332;DHT22;1678;50.94845400;5.30809100;2022-12-16T09:50:03;0.30;99.90
3332;DHT22;1678;50.94845400;5.30809100;2022-12-16T09:52:52;0.30;99.90
3332;DHT22;1678;50.94845400;5.30809100;2022-12-16T09:55:44;0.40;99.90
3332;DHT22;1678;50.94845400;5.30809100;2022-12-16T09:58:35;0.40;99.90
3332;DHT22;1678;50.94845400;5.30809100;2022-12-16T10:01:24;0.60;99.90
3332;DHT22;1678;50.94845400;5.30809100;2022-12-16T10:04:11;0.50;99.90
3332;DHT22;1678;50.94845400;5.30809100;2022-12-16T10:06:58;0.60;99.90
3332;DHT22;1678;50.94845400;5.30809100;2022-12-16T10:09:52;0.70;99.90
3332;DHT22;1678;50.94845400;5.30809100;2022-12-16T10:12:47;0.70;99.90
3332;DHT22;1678;50.94845400;5.30809100;2022-12-16T10:15:38;0.80;99.90
3332;DHT22;1678;50.94845400;5.30809100;2022-12-16T10:18:36;0.80;99.90
3332;DHT22;1678;50.94845400;5.30809100;2022-12-16T10:21:29;0.90;99.90
3332;DHT22;1678;50.94845400;5.30809100;2022-12-16T10:24:24;1.00;99.90
3332;DHT22;1678;50.94845400;5.30809100;2022-12-16T10:27:13;1.10;99.90
3332;DHT22;1678;50.94845400;5.30809100;2022-12-16T10:30:02;1.10;99.90
3332;DHT22;1678;50.94845400;5.30809100;2022-12-16T10:32:49;1.10;99.90
3332;DHT22;1678;50.94845400;5.30809100;2022-12-16T10:35:37;1.10;99.90
3332;DHT22;1678;50.94845400;5.30809100;2022-12-16T10:38:30;1.10;99.90
3332;DHT22;1678;50.94845400;5.30809100;2022-12-16T10:41:21;1.10;99.90
3332;DHT22;1678;50.94845400;5.30809100;2022-12-16T10:44:18;1.20;99.90
3332;DHT22;1678;50.94845400;5.30809100;2022-12-16T10:47:06;1.30;99.90
3332;DHT22;1678;50.94845400;5.30809100;2022-12-16T10:49:53;1.30;99.90
3332;DHT22;1678;50.94845400;5.30809100;2022-12-16T10:52:50;1.40;99.90
3332;DHT22;1678;50.94845400;5.30809100;2022-12-16T10:55:46;1.30;99.90
3332;DHT22;1678;50.94845400;5.30809100;2022-12-16T10:58:41;1.40;99.90
3332;DHT22;1678;50.94845400;5.30809100;2022-12-16T11:01:30;1.40;99.90
3332;DHT22;1678;50.94845400;5.30809100;2022-12-16T11:04:31;1.50;99.90
3332;DHT22;1678;50.94845400;5.30809100;2022-12-16T11:07:30;1.50;99.90
3332;DHT22;1678;50.94845400;5.30809100;2022-12-16T11:10:31;1.60;99.90
3332;DHT22;1678;50.94845400;5.30809100;2022-12-16T11:13:23;1.60;99.90
3332;DHT22;1678;50.94845400;5.30809100;2022-12-16T11:16:16;1.60;99.90
3332;DHT22;1678;50.94845400;5.30809100;2022-12-16T11:19:02;1.60;99.90
3332;DHT22;1678;50.94845400;5.30809100;2022-12-16T11:21:49;1.70;99.90
3332;DHT22;1678;50.94845400;5.30809100;2022-12-16T11:24:35;1.80;99.90
3332;DHT22;1678;50.94845400;5.30809100;2022-12-16T11:27:22;1.70;99.90
3332;DHT22;1678;50.94845400;5.30809100;2022-12-16T11:30:19;1.80;99.90
3332;DHT22;1678;50.94845400;5.30809100;2022-12-16T11:33:11;1.90;99.90
3332;DHT22;1678;50.94845400;5.30809100;2022-12-16T11:36:10;1.90;99.90
3332;DHT22;1678;50.94845400;5.30809100;2022-12-16T11:39:01;2.00;99.90
3332;DHT22;1678;50.94845400;5.30809100;2022-12-16T11:41:49;2.10;99.90
3332;DHT22;1678;50.94845400;5.30809100;2022-12-16T11:44:40;2.00;99.90
3332;DHT22;1678;50.94845400;5.30809100;2022-12-16T11:47:34;2.00;99.90
3332;DHT22;1678;50.94845400;5.30809100;2022-12-16T11:50:23;2.20;99.90
3332;DHT22;1678;50.94845400;5.30809100;2022-12-16T11:53:24;2.10;99.90
3332;DHT22;1678;50.94845400;5.30809100;2022-12-16T11:56:14;2.20;99.90
3332;DHT22;1678;50.94845400;5.30809100;2022-12-16T11:59:03;2.30;99.90
3332;DHT22;1678;50.94845400;5.30809100;2022-12-16T12:01:54;2.30;99.90
3332;DHT22;1678;50.94845400;5.30809100;2022-12-16T12:04:41;2.40;99.90
3332;DHT22;1678;50.94845400;5.30809100;2022-12-16T12:07:39;2.40;99.90
3332;DHT22;1678;50.94845400;5.30809100;2022-12-16T12:10:44;2.60;99.90
3332;DHT22;1678;50.94845400;5.30809100;2022-12-16T12:13:41;2.50;99.90
3332;DHT22;1678;50.94845400;5.30809100;2022-12-16T12:16:38;2.60;99.90
3332;DHT22;1678;50.94845400;5.30809100;2022-12-16T12:19:34;2.70;99.90
3332;DHT22;1678;50.94845400;5.30809100;2022-12-16T12:22:31;2.80;99.90
3332;DHT22;1678;50.94845400;5.30809100;2022-12-16T12:25:22;2.60;99.90
3332;DHT22;1678;50.94845400;5.30809100;2022-12-16T12:28:17;2.60;99.90
3332;DHT22;1678;50.94845400;5.30809100;2022-12-16T12:31:17;2.50;99.90
3332;DHT22;1678;50.94845400;5.30809100;2022-12-16T12:34:08;2.40;99.90
3332;DHT22;1678;50.94845400;5.30809100;2022-12-16T12:37:03;2.50;99.90
3332;DHT22;1678;50.94845400;5.30809100;2022-12-16T12:39:56;2.40;99.90
3332;DHT22;1678;50.94845400;5.30809100;2022-12-16T12:42:45;2.50;99.90
3332;DHT22;1678;50.94845400;5.30809100;2022-12-16T12:45:51;2.40;99.90
3332;DHT22;1678;50.94845400;5.30809100;2022-12-16T12:48:46;2.50;99.90
3332;DHT22;1678;50.94845400;5.30809100;2022-12-16T12:51:36;2.40;99.90
3332;DHT22;1678;50.94845400;5.30809100;2022-12-16T12:54:32;2.40;99.90
3332;DHT22;1678;50.94845400;5.30809100;2022-12-16T12:57:21;2.40;99.90
3332;DHT22;1678;50.94845400;5.30809100;2022-12-16T13:00:14;2.40;99.90
3332;DHT22;1678;50.94845400;5.30809100;2022-12-16T13:03:04;2.40;99.90
3332;DHT22;1678;50.94845400;5.30809100;2022-12-16T13:05:54;2.20;99.90
3332;DHT22;1678;50.94845400;5.30809100;2022-12-16T13:08:56;2.20;99.90
3332;DHT22;1678;50.94845400;5.30809100;2022-12-16T13:15:02;1.90;99.90
3332;DHT22;1678;50.94845400;5.30809100;2022-12-16T13:21:43;1.90;99.90
3332;DHT22;1678;50.94845400;5.30809100;2022-12-16T13:24:36;1.80;99.90
3332;DHT22;1678;50.94845400;5.30809100;2022-12-16T13:27:23;1.80;99.90
3332;DHT22;1678;50.94845400;5.30809100;2022-12-16T13:30:23;1.80;99.90
3332;DHT22;1678;50.94845400;5.30809100;2022-12-16T13:33:27;1.90;99.90
3332;DHT22;1678;50.94845400;5.30809100;2022-12-16T13:36:15;1.90;99.90
3332;DHT22;1678;50.94845400;5.30809100;2022-12-16T13:39:20;2.00;99.90
3332;DHT22;1678;50.94845400;5.30809100;2022-12-16T13:42:31;2.00;99.90
3332;DHT22;1678;50.94845400;5.30809100;2022-12-16T13:45:28;2.10;99.90
3332;DHT22;1678;50.94845400;5.30809100;2022-12-16T13:48:35;2.00;99.90
3332;DHT22;1678;50.94845400;5.30809100;2022-12-16T13:55:11;2.10;99.90
3332;DHT22;1678;50.94845400;5.30809100;2022-12-16T13:58:05;2.20;99.90
3332;DHT22;1678;50.94845400;5.30809100;2022-12-16T14:01:00;2.10;99.90
3332;DHT22;1678;50.94845400;5.30809100;2022-12-16T14:03:48;2.00;99.90
3332;DHT22;1678;50.94845400;5.30809100;2022-12-16T14:06:37;2.00;99.90
3332;DHT22;1678;50.94845400;5.30809100;2022-12-16T14:09:31;1.90;99.90
3332;DHT22;1678;50.94845400;5.30809100;2022-12-16T14:12:34;1.90;99.90
3332;DHT22;1678;50.94845400;5.30809100;2022-12-16T14:15:26;2.00;99.90
3332;DHT22;1678;50.94845400;5.30809100;2022-12-16T14:18:23;1.90;99.90
3332;DHT22;1678;50.94845400;5.30809100;2022-12-16T14:21:14;1.90;99.90
3332;DHT22;1678;50.94845400;5.30809100;2022-12-16T14:24:06;2.00;99.90
3332;DHT22;1678;50.94845400;5.30809100;2022-12-16T14:27:14;1.90;99.90
3332;DHT22;1678;50.94845400;5.30809100;2022-12-16T14:30:03;2.00;99.90
3332;DHT22;1678;50.94845400;5.30809100;2022-12-16T14:32:49;2.00;99.90
3332;DHT22;1678;50.94845400;5.30809100;2022-12-16T14:35:35;2.00;99.90
3332;DHT22;1678;50.94845400;5.30809100;2022-12-16T14:38:23;1.90;99.90
3332;DHT22;1678;50.94845400;5.30809100;2022-12-16T14:41:11;1.90;99.90
3332;DHT22;1678;50.94845400;5.30809100;2022-12-16T14:43:57;1.80;99.90
3332;DHT22;1678;50.94845400;5.30809100;2022-12-16T14:46:49;1.70;99.90
3332;DHT22;1678;50.94845400;5.30809100;2022-12-16T14:49:48;1.70;99.90
3332;DHT22;1678;50.94845400;5.30809100;2022-12-16T14:52:34;1.60;99.90
3332;DHT22;1678;50.94845400;5.30809100;2022-12-16T14:55:26;1.60;99.90
3332;DHT22;1678;50.94845400;5.30809100;2022-12-16T14:58:16;1.50;99.90
3332;DHT22;1678;50.94845400;5.30809100;2022-12-16T15:01:07;1.40;99.90
3332;DHT22;1678;50.94845400;5.30809100;2022-12-16T15:03:56;1.30;99.90
3332;DHT22;1678;50.94845400;5.30809100;2022-12-16T15:06:44;1.20;99.90
3332;DHT22;1678;50.94845400;5.30809100;2022-12-16T15:09:33;1.20;99.90
3332;DHT22;1678;50.94845400;5.30809100;2022-12-16T15:12:23;1.20;99.90
3332;DHT22;1678;50.94845400;5.30809100;2022-12-16T15:15:14;1.10;99.90
3332;DHT22;1678;50.94845400;5.30809100;2022-12-16T15:18:00;1.10;99.90
3332;DHT22;1678;50.94845400;5.30809100;2022-12-16T15:20:51;0.90;99.90
3332;DHT22;1678;50.94845400;5.30809100;2022-12-16T15:23:39;0.90;99.90
3332;DHT22;1678;50.94845400;5.30809100;2022-12-16T15:26:29;0.90;99.90
3332;DHT22;1678;50.94845400;5.30809100;2022-12-16T15:29:36;0.90;99.90
3332;DHT22;1678;50.94845400;5.30809100;2022-12-16T15:32:27;0.80;99.90
3332;DHT22;1678;50.94845400;5.30809100;2022-12-16T15:35:23;0.70;99.90
3332;DHT22;1678;50.94845400;5.30809100;2022-12-16T15:38:15;0.60;99.90